Time;durP1;ratioP1;P1;durP2;ratioP2;P2;SDS_P1;SDS_P2;PMS_P1;PMS_P2;Temp;Humidity;BMP_temperature;BMP_pressure;BME280_temperature;BME280_humidity;BME280_pressure;Samples;Min_cycle;Max_cycle;Signal;HPM_P1;HPM_P2
2022/03/29 00:02:13;;;;;;;10.60;9.50;;;;;;;9.28;59.84;96510.22;5047889;28;20207;-59
2022/03/29 00:04:40;;;;;;;11.73;10.53;;;;;;;9.23;60.17;96512.41;5050316;28;20223;-59
2022/03/29 00:07:07;;;;;;;11.87;10.57;;;;;;;9.21;60.03;96503.81;5047163;28;20631;-59
2022/03/29 00:09:35;;;;;;;10.23;9.17;;;;;;;9.25;59.30;96494.63;5057325;28;20580;-57
2022/03/29 00:12:01;;;;;;;12.27;10.27;;;;;;;9.25;59.24;96494.63;5074389;28;20227;-59
2022/03/29 00:14:28;;;;;;;10.47;9.37;;;;;;;9.15;61.06;96489.34;5059007;28;20290;-60
2022/03/29 00:16:55;;;;;;;11.50;10.37;;;;;;;9.10;62.01;96496.88;5056425;28;20289;-59
2022/03/29 00:19:21;;;;;;;12.03;9.87;;;;;;;9.05;62.08;96492.97;5054310;28;20203;-59
2022/03/29 00:21:48;;;;;;;10.83;9.60;;;;;;;9.05;61.60;96491.16;5056001;28;20207;-58
2022/03/29 00:24:14;;;;;;;12.90;9.63;;;;;;;9.02;62.58;96483.53;5062131;28;20274;-59
2022/03/29 00:26:42;;;;;;;12.03;10.07;;;;;;;9.09;60.98;96483.81;5060998;28;20245;-59
2022/03/29 00:29:09;;;;;;;10.50;9.10;;;;;;;9.09;61.16;96483.81;5074417;28;20289;-57
2022/03/29 00:31:36;;;;;;;10.73;9.63;;;;;;;9.03;62.23;96473.81;5054668;28;20221;-59
2022/03/29 00:34:02;;;;;;;13.10;9.43;;;;;;;8.96;62.85;96474.34;5054144;28;20294;-59
2022/03/29 00:36:29;;;;;;;11.97;10.00;;;;;;;9.04;61.56;96464.91;5053949;28;20223;-58
2022/03/29 00:38:55;;;;;;;11.43;9.73;;;;;;;9.10;61.67;96465.22;5054285;28;20215;-59
2022/03/29 00:41:22;;;;;;;10.80;9.67;;;;;;;9.13;62.27;96464.09;5054203;28;20284;-59
2022/03/29 00:43:50;;;;;;;10.83;9.73;;;;;;;9.19;61.27;96458.25;5052933;28;20250;-60
2022/03/29 00:46:17;;;;;;;11.47;10.27;;;;;;;9.16;61.35;96455.91;5054687;28;20231;-59
2022/03/29 00:48:45;;;;;;;11.87;9.87;;;;;;;9.02;62.91;96454.50;5057040;28;20538;-57
2022/03/29 00:51:12;;;;;;;11.03;9.60;;;;;;;9.04;62.55;96446.44;5069361;28;20223;-58
2022/03/29 00:53:39;;;;;;;10.53;9.47;;;;;;;9.00;62.27;96448.53;5078064;28;20199;-58
2022/03/29 00:56:05;;;;;;;12.40;10.53;;;;;;;8.94;62.22;96449.91;5069835;28;20286;-56
2022/03/29 00:58:34;;;;;;;10.83;9.40;;;;;;;8.96;61.82;96441.88;5060315;28;20211;-58
2022/03/29 01:01:04;;;;;;;10.90;9.70;;;;;;;8.97;61.40;96441.72;5057234;28;20250;-56
2022/03/29 01:03:31;;;;;;;13.87;9.90;;;;;;;8.89;62.54;96432.84;5056925;28;20206;-57
2022/03/29 01:05:59;;;;;;;11.27;10.07;;;;;;;8.83;61.79;96436.84;5057252;28;20294;-57
2022/03/29 01:08:27;;;;;;;11.57;10.17;;;;;;;8.74;62.85;96437.69;5049140;28;20238;-58
2022/03/29 01:10:54;;;;;;;11.37;9.83;;;;;;;8.68;64.12;96434.78;5057254;28;20217;-58
2022/03/29 01:13:20;;;;;;;12.63;10.23;;;;;;;8.66;63.26;96437.53;5057340;28;20200;-57
2022/03/29 01:15:47;;;;;;;11.70;10.30;;;;;;;8.68;62.95;96432.13;5057261;28;20215;-57
2022/03/29 01:18:17;;;;;;;11.33;10.13;;;;;;;8.67;62.14;96431.31;5057296;28;20646;-59
2022/03/29 01:20:47;;;;;;;12.00;10.03;;;;;;;8.68;61.15;96426.88;5052401;28;20234;-59
2022/03/29 01:23:15;;;;;;;10.00;8.90;;;;;;;8.69;61.33;96429.34;5056587;28;20640;-59
2022/03/29 01:25:43;;;;;;;9.83;8.83;;;;;;;8.75;61.26;96425.34;5056476;28;20235;-59
2022/03/29 01:28:11;;;;;;;10.77;9.67;;;;;;;8.73;62.22;96420.19;5044252;28;20227;-59
2022/03/29 01:30:37;;;;;;;12.03;9.43;;;;;;;8.75;61.95;96423.53;5058586;28;20203;-59
2022/03/29 01:33:07;;;;;;;12.97;9.97;;;;;;;8.80;61.60;96413.41;5058030;28;20207;-58
2022/03/29 01:35:34;;;;;;;12.63;10.57;;;;;;;8.75;61.70;96423.53;5058300;28;20199;-57
2022/03/29 01:38:00;;;;;;;12.00;10.03;;;;;;;8.69;61.24;96418.81;5050390;28;20214;-57
2022/03/29 01:40:33;;;;;;;10.47;9.37;;;;;;;8.67;61.25;96414.66;5042658;28;20210;-57
2022/03/29 01:43:04;;;;;;;10.67;9.57;;;;;;;8.67;60.92;96412.84;5044478;28;20204;-57
2022/03/29 01:45:32;;;;;;;11.50;9.50;;;;;;;8.68;61.87;96411.06;5045126;28;20294;-58
2022/03/29 01:47:59;;;;;;;10.43;9.40;;;;;;;8.55;63.09;96406.03;5043340;28;21196;-59
2022/03/29 01:50:26;;;;;;;11.27;9.27;;;;;;;8.53;61.87;96405.34;5044691;28;20214;-56
2022/03/29 01:52:54;;;;;;;10.33;9.13;;;;;;;8.49;62.01;96406.56;5043692;28;20210;-56
2022/03/29 01:55:22;;;;;;;11.20;9.70;;;;;;;8.38;62.75;96406.69;5043969;28;20199;-58
2022/03/29 01:57:51;;;;;;;10.80;8.87;;;;;;;8.35;62.97;96406.97;5042267;28;20203;-54
2022/03/29 02:03:08;;;;;;;11.27;9.37;;;;;;;8.36;62.87;96406.00;5029897;28;20217;-54
2022/03/29 02:05:35;;;;;;;11.50;10.23;;;;;;;8.32;63.41;96400.16;5043589;28;20196;-55
2022/03/29 02:08:02;;;;;;;11.87;9.87;;;;;;;8.20;64.77;96400.38;5044061;28;20257;-55
2022/03/29 02:10:29;;;;;;;11.87;9.47;;;;;;;8.21;63.88;96397.59;5043149;28;20208;-54
2022/03/29 02:12:57;;;;;;;11.87;10.53;;;;;;;8.15;64.59;96392.84;5043774;28;20207;-55
2022/03/29 02:15:24;;;;;;;11.53;10.20;;;;;;;8.14;64.07;96387.75;5043258;28;20202;-55
2022/03/29 02:17:50;;;;;;;9.63;8.63;;;;;;;8.19;63.78;96385.53;5043733;28;20199;-56
2022/03/29 02:20:18;;;;;;;10.57;9.47;;;;;;;8.28;63.14;96382.09;5043273;28;20208;-54
2022/03/29 02:22:44;;;;;;;10.67;9.57;;;;;;;8.22;64.28;96380.00;5043458;28;20207;-55
2022/03/29 02:25:11;;;;;;;11.80;10.13;;;;;;;8.20;64.13;96380.13;5043207;28;20234;-54
2022/03/29 02:27:38;;;;;;;10.97;9.77;;;;;;;8.15;64.42;96371.78;5043780;28;20215;-53
2022/03/29 02:30:07;;;;;;;10.57;9.47;;;;;;;8.08;64.83;96372.47;5042485;28;20232;-55
2022/03/29 02:32:34;;;;;;;11.17;9.87;;;;;;;8.00;65.46;96368.72;5042928;28;20226;-54
2022/03/29 02:35:01;;;;;;;12.60;10.13;;;;;;;8.01;65.87;96366.91;5043511;28;20207;-55
2022/03/29 02:37:27;;;;;;;12.03;10.00;;;;;;;8.09;64.96;96361.81;5042188;28;20210;-54
2022/03/29 02:39:54;;;;;;;11.53;9.23;;;;;;;8.02;65.54;96358.88;5043246;28;20195;-55
2022/03/29 02:42:20;;;;;;;12.27;10.07;;;;;;;8.05;65.08;96359.56;5043396;28;20231;-54
2022/03/29 02:44:47;;;;;;;13.03;9.67;;;;;;;8.05;64.33;96354.28;5042493;28;20637;-54
2022/03/29 02:47:15;;;;;;;11.43;9.73;;;;;;;8.03;63.78;96351.81;5042873;28;20261;-54
2022/03/29 02:49:41;;;;;;;10.10;9.07;;;;;;;7.95;65.00;96349.84;5042596;28;20207;-56
2022/03/29 02:52:08;;;;;;;10.83;9.70;;;;;;;7.98;64.24;96346.94;5042442;28;20188;-53
2022/03/29 02:54:35;;;;;;;10.80;9.10;;;;;;;7.99;64.22;96351.25;5043341;28;20219;-53
2022/03/29 02:57:01;;;;;;;12.00;9.00;;;;;;;8.04;63.24;96350.00;5043014;28;20195;-54
2022/03/29 02:59:28;;;;;;;10.50;8.80;;;;;;;8.03;63.52;96346.53;5042189;28;20222;-53
2022/03/29 03:01:54;;;;;;;9.97;8.87;;;;;;;7.91;64.92;96337.91;5042676;28;20677;-54
2022/03/29 03:04:22;;;;;;;9.90;8.90;;;;;;;8.00;64.68;96331.84;5042837;28;20203;-52
2022/03/29 03:06:49;;;;;;;10.73;9.33;;;;;;;8.00;64.17;96331.84;5043128;28;20211;-53
2022/03/29 03:09:15;;;;;;;11.27;9.20;;;;;;;7.94;64.67;96321.00;5043566;28;20195;-53
2022/03/29 03:11:42;;;;;;;10.07;8.97;;;;;;;7.98;64.45;96325.88;5057530;28;20215;-52
2022/03/29 03:14:09;;;;;;;9.30;8.40;;;;;;;8.00;64.20;96331.84;5047365;28;20220;-55
2022/03/29 03:16:38;;;;;;;11.77;9.60;;;;;;;8.05;64.55;96333.22;5053908;28;20200;-53
2022/03/29 03:19:04;;;;;;;11.10;9.03;;;;;;;8.07;64.19;96331.31;5050648;28;20202;-54
2022/03/29 03:21:32;;;;;;;10.40;9.37;;;;;;;8.14;63.75;96335.06;5045878;28;20198;-52
2022/03/29 03:23:59;;;;;;;12.33;9.67;;;;;;;8.12;64.23;96323.81;5043623;28;20211;-52
2022/03/29 03:26:26;;;;;;;10.37;9.27;;;;;;;8.04;65.13;96323.69;5042293;28;20250;-52
2022/03/29 03:28:52;;;;;;;10.23;9.13;;;;;;;8.02;64.28;96319.38;5045382;28;20222;-52
2022/03/29 03:31:18;;;;;;;12.43;10.50;;;;;;;7.98;64.15;96320.59;5044429;28;20203;-53
2022/03/29 03:33:45;;;;;;;10.87;9.60;;;;;;;8.03;63.90;96320.22;5044297;28;20223;-54
2022/03/29 03:36:11;;;;;;;11.57;9.43;;;;;;;8.08;63.70;96311.91;5047444;28;20207;-55
2022/03/29 03:38:40;;;;;;;10.70;9.37;;;;;;;7.92;65.15;96313.25;5052862;28;20211;-55
2022/03/29 03:41:07;;;;;;;10.37;9.27;;;;;;;7.89;64.13;96313.53;5049752;28;20215;-54
2022/03/29 03:43:33;;;;;;;10.27;9.17;;;;;;;7.78;65.99;96318.91;5051065;28;20208;-58
2022/03/29 03:46:00;;;;;;;9.50;8.60;;;;;;;7.70;64.98;96313.47;5053035;28;20199;-56
2022/03/29 03:48:27;;;;;;;11.27;8.83;;;;;;;7.77;65.36;96316.38;5051359;28;20234;-59
2022/03/29 03:50:53;;;;;;;12.30;9.00;;;;;;;7.77;65.08;96304.06;5045059;28;20214;-60
2022/03/29 03:53:20;;;;;;;12.13;9.83;;;;;;;7.75;65.35;96306.00;5047283;28;20195;-59
2022/03/29 03:55:48;;;;;;;12.13;10.30;;;;;;;7.78;64.79;96305.75;5044096;28;20204;-59
2022/03/29 03:58:14;;;;;;;11.53;10.33;;;;;;;7.80;64.49;96301.16;5043885;28;20192;-57
2022/03/29 04:00:41;;;;;;;11.80;9.60;;;;;;;7.70;65.30;96296.84;5041504;28;20203;-58
2022/03/29 04:03:09;;;;;;;10.23;9.10;;;;;;;7.74;64.77;96293.81;5042486;28;20233;-59
2022/03/29 04:05:36;;;;;;;12.03;10.17;;;;;;;7.74;63.96;96296.44;5042014;28;20203;-59
2022/03/29 04:08:02;;;;;;;11.67;9.40;;;;;;;7.81;63.36;96292.31;5042201;28;20278;-59
2022/03/29 04:10:29;;;;;;;11.70;9.30;;;;;;;7.86;63.26;96291.91;5041441;28;20196;-58
2022/03/29 04:12:57;;;;;;;10.37;9.37;;;;;;;7.88;63.39;96289.97;5041515;28;20210;-59
2022/03/29 04:15:23;;;;;;;11.43;9.40;;;;;;;7.91;63.22;96281.78;5041434;28;20214;-58
2022/03/29 04:17:50;;;;;;;11.13;9.53;;;;;;;7.92;63.00;96272.94;5042115;28;20535;-59
2022/03/29 04:20:16;;;;;;;12.50;9.70;;;;;;;7.92;63.33;96280.84;5041016;28;20765;-59
2022/03/29 04:22:42;;;;;;;15.60;13.20;;;;;;;7.84;64.13;96284.13;5045369;28;20203;-59
2022/03/29 04:25:10;;;;;;;11.97;10.67;;;;;;;7.86;64.96;96282.22;5045274;28;20245;-58
2022/03/29 04:27:37;;;;;;;13.13;10.13;;;;;;;7.92;64.56;96276.41;5045136;28;20249;-59
2022/03/29 04:30:08;;;;;;;13.10;9.43;;;;;;;7.81;65.36;96273.88;5044734;28;20199;-60
2022/03/29 04:32:37;;;;;;;12.43;10.10;;;;;;;7.71;66.32;96280.91;5047216;28;20225;-58
2022/03/29 04:35:04;;;;;;;12.00;10.13;;;;;;;7.73;67.01;96281.59;5046552;28;20584;-60
2022/03/29 04:37:30;;;;;;;12.97;10.53;;;;;;;7.79;65.96;96283.72;5046591;28;20203;-59
2022/03/29 04:39:57;;;;;;;13.73;11.17;;;;;;;7.81;66.43;96280.94;5048968;28;20208;-59
2022/03/29 04:42:23;;;;;;;12.60;10.60;;;;;;;7.77;66.01;96287.44;5049373;28;20204;-59
2022/03/29 04:44:50;;;;;;;14.70;10.40;;;;;;;7.86;65.33;96289.28;5047485;28;20214;-61
2022/03/29 04:47:18;;;;;;;12.00;10.17;;;;;;;7.90;65.92;96269.63;5044146;28;20532;-58
2022/03/29 04:49:44;;;;;;;12.07;10.10;;;;;;;7.81;67.06;96273.88;5051980;28;20233;-59
2022/03/29 04:52:12;;;;;;;13.03;10.67;;;;;;;7.74;67.86;96278.03;5056464;28;20199;-59
2022/03/29 04:54:39;;;;;;;13.73;10.97;;;;;;;7.71;68.16;96273.03;5053622;28;20204;-59
2022/03/29 04:57:05;;;;;;;14.40;11.67;;;;;;;7.71;67.84;96272.19;5043738;28;20216;-59
2022/03/29 04:59:32;;;;;;;13.37;10.73;;;;;;;7.81;67.94;96271.25;5044429;28;20222;-59
2022/03/29 05:01:58;;;;;;;12.17;10.83;;;;;;;7.70;68.67;96273.16;5045344;28;20229;-60
2022/03/29 05:04:27;;;;;;;14.43;11.10;;;;;;;7.69;69.25;96269.69;5044160;28;20682;-60
2022/03/29 05:06:55;;;;;;;13.33;10.87;;;;;;;7.66;69.79;96266.47;5045532;28;20204;-59
2022/03/29 05:09:23;;;;;;;12.67;10.73;;;;;;;7.76;68.80;96255.00;5044732;28;20664;-58
2022/03/29 05:11:49;;;;;;;13.30;10.70;;;;;;;7.70;67.91;96267.88;5044353;28;20200;-58
2022/03/29 05:14:16;;;;;;;12.57;11.27;;;;;;;7.72;68.45;96266.78;5044017;28;20239;-60
2022/03/29 05:16:42;;;;;;;13.73;10.20;;;;;;;7.73;67.67;96272.88;5044642;28;20231;-59
2022/03/29 05:19:09;;;;;;;12.10;10.87;;;;;;;7.71;68.52;96273.03;5045346;28;20200;-59
2022/03/29 05:21:37;;;;;;;11.70;10.50;;;;;;;7.67;69.29;96271.63;5045343;28;20226;-59
2022/03/29 05:24:05;;;;;;;13.30;10.70;;;;;;;7.66;68.76;96269.94;5043934;28;20203;-59
2022/03/29 05:26:32;;;;;;;11.97;10.77;;;;;;;7.60;69.25;96261.78;5044230;28;20342;-59
2022/03/29 05:28:58;;;;;;;13.87;10.60;;;;;;;7.72;68.43;96269.41;5052158;28;20231;-59
2022/03/29 05:31:25;;;;;;;11.47;10.27;;;;;;;7.64;68.58;96266.63;5070600;28;20207;-59
2022/03/29 05:33:51;;;;;;;13.50;11.23;;;;;;;7.63;69.32;96270.22;5069122;28;20191;-60
2022/03/29 05:36:19;;;;;;;14.33;11.37;;;;;;;7.63;69.79;96264.97;5055915;28;20203;-59
2022/03/29 05:38:50;;;;;;;12.83;11.30;;;;;;;7.65;69.63;96268.28;5046088;28;20203;-59
2022/03/29 05:41:19;;;;;;;15.60;11.07;;;;;;;7.64;70.46;96271.91;5045114;28;20196;-59
2022/03/29 05:43:46;;;;;;;12.40;10.80;;;;;;;7.65;70.55;96263.00;5045065;28;20202;-60
2022/03/29 05:48:57;;;;;;;13.63;11.03;;;;;;;7.84;68.86;96267.50;5043368;28;20238;-58
2022/03/29 05:51:24;;;;;;;14.57;10.73;;;;;;;7.95;68.34;96270.84;5042845;28;20627;-58
2022/03/29 05:53:52;;;;;;;15.80;11.57;;;;;;;8.06;68.29;96276.97;5045591;28;20290;-59
2022/03/29 05:56:19;;;;;;;14.10;10.87;;;;;;;8.09;68.80;96268.78;5043610;28;20202;-59
2022/03/29 05:58:46;;;;;;;17.37;11.47;;;;;;;8.19;68.79;96267.00;5044041;28;20205;-59
2022/03/29 06:01:12;;;;;;;14.73;11.47;;;;;;;8.21;69.36;96268.53;5042926;28;20204;-60
2022/03/29 06:03:39;;;;;;;13.80;11.33;;;;;;;8.27;70.03;96267.97;5044587;28;20218;-59
2022/03/29 06:06:06;;;;;;;19.17;11.57;;;;;;;8.30;69.20;96264.25;5045274;28;20215;-58
2022/03/29 06:08:33;;;;;;;17.63;11.73;;;;;;;8.32;69.97;96259.72;5044415;28;20663;-60
2022/03/29 06:11:01;;;;;;;13.33;10.43;;;;;;;8.44;69.52;96263.84;5045194;28;20202;-60
2022/03/29 06:13:28;;;;;;;16.53;12.13;;;;;;;8.52;69.95;96274.53;5045632;28;20222;-59
2022/03/29 06:15:54;;;;;;;18.03;12.30;;;;;;;8.63;70.21;96265.66;5044164;28;20201;-59
2022/03/29 06:18:21;;;;;;;16.60;11.53;;;;;;;8.74;70.80;96273.41;5044221;28;20856;-60
2022/03/29 06:20:48;;;;;;;27.63;11.93;;;;;;;8.83;69.18;96270.75;5044168;28;20227;-58
2022/03/29 06:23:14;;;;;;;18.13;12.30;;;;;;;8.96;67.40;96271.28;5043928;28;20200;-59
2022/03/29 06:25:41;;;;;;;18.47;12.10;;;;;;;9.14;67.72;96275.84;5044532;28;20250;-60
2022/03/29 06:28:10;;;;;;;14.33;11.37;;;;;;;9.24;65.32;96266.91;5043068;28;20676;-59
2022/03/29 06:30:37;;;;;;;18.43;12.17;;;;;;;9.35;65.54;96269.34;5044180;28;20732;-59
2022/03/29 06:33:04;;;;;;;16.03;12.33;;;;;;;9.44;66.23;96267.66;5043995;28;20208;-58
2022/03/29 06:35:32;;;;;;;19.47;11.60;;;;;;;9.59;65.06;96270.66;5044818;28;20233;-59
2022/03/29 06:38:00;;;;;;;15.20;12.00;;;;;;;9.68;63.97;96270.59;5043615;28;20203;-60
2022/03/29 06:40:28;;;;;;;20.60;12.40;;;;;;;9.63;67.52;96267.59;5042017;28;20196;-59
2022/03/29 06:42:55;;;;;;;16.87;12.10;;;;;;;9.73;64.30;96271.00;5042840;28;20207;-59
2022/03/29 06:45:26;;;;;;;17.07;12.40;;;;;;;9.84;65.50;96270.81;5042777;28;20265;-60
2022/03/29 06:47:54;;;;;;;17.50;12.13;;;;;;;9.98;66.00;96265.03;5043160;28;20210;-58
2022/03/29 06:50:21;;;;;;;19.33;12.67;;;;;;;10.12;63.70;96268.13;5043958;28;20199;-60
2022/03/29 06:52:48;;;;;;;15.30;12.37;;;;;;;10.34;64.48;96265.94;5044357;28;20269;-59
2022/03/29 06:55:16;;;;;;;15.00;12.17;;;;;;;10.72;60.11;96266.59;5042891;28;20213;-58
2022/03/29 06:57:43;;;;;;;21.00;12.03;;;;;;;11.14;58.33;96266.72;5042677;28;20203;-59
2022/03/29 07:00:10;;;;;;;19.20;12.73;;;;;;;11.35;57.91;96265.38;5041086;28;20250;-58
2022/03/29 07:02:39;;;;;;;14.43;12.27;;;;;;;11.69;56.11;96269.84;5043785;28;20636;-58
2022/03/29 07:05:07;;;;;;;17.97;12.90;;;;;;;11.78;56.76;96268.91;5042945;28;20203;-59
2022/03/29 07:07:33;;;;;;;18.60;11.80;;;;;;;11.75;54.83;96275.38;5042009;28;20196;-60
2022/03/29 07:12:49;;;;;;;15.63;12.03;;;;;;;11.78;54.12;96269.75;5042352;28;20210;-60
2022/03/29 07:15:15;;;;;;;14.73;12.23;;;;;;;11.68;55.03;96271.66;5042156;28;20231;-57
2022/03/29 07:17:43;;;;;;;19.50;12.50;;;;;;;11.82;53.50;96262.31;5042428;28;20200;-60
2022/03/29 07:20:11;;;;;;;17.33;12.07;;;;;;;11.75;55.03;96278.03;5042288;28;20204;-59
2022/03/29 07:22:37;;;;;;;22.80;13.17;;;;;;;11.88;56.01;96273.09;5042965;28;20231;-60
2022/03/29 07:25:04;;;;;;;22.17;12.63;;;;;;;11.88;56.14;96272.25;5041976;28;20227;-58
2022/03/29 07:27:31;;;;;;;17.40;12.47;;;;;;;12.00;54.60;96270.16;5043320;28;20207;-59
2022/03/29 07:29:59;;;;;;;18.47;12.43;;;;;;;12.06;55.15;96264.22;5042580;28;20228;-60
2022/03/29 07:32:26;;;;;;;14.90;12.30;;;;;;;12.05;55.03;96262.53;5043227;28;20203;-59
2022/03/29 07:34:54;;;;;;;17.50;13.90;;;;;;;12.14;53.09;96261.59;5041948;28;20204;-59
2022/03/29 07:37:21;;;;;;;19.87;15.07;;;;;;;12.23;53.31;96261.44;5042574;28;21416;-59
2022/03/29 07:39:53;;;;;;;16.23;12.53;;;;;;;12.25;52.68;96261.28;5042606;28;20589;-60
2022/03/29 07:42:20;;;;;;;15.27;12.00;;;;;;;12.17;53.88;96261.25;5041224;28;20753;-59
2022/03/29 07:44:49;;;;;;;17.43;12.30;;;;;;;12.32;52.55;96254.34;5042104;28;20203;-59
2022/03/29 07:47:16;;;;;;;20.63;12.03;;;;;;;12.27;54.18;96251.34;5042176;28;20200;-59
2022/03/29 07:49:43;;;;;;;20.27;12.27;;;;;;;12.41;51.52;96253.34;5041482;28;20233;-61
2022/03/29 07:52:11;;;;;;;17.37;12.60;;;;;;;12.36;51.40;96256.47;5066722;28;20254;-58
2022/03/29 07:54:37;;;;;;;18.23;12.97;;;;;;;12.36;51.96;96250.38;5070403;28;20175;-58
2022/03/29 07:57:08;;;;;;;17.03;11.73;;;;;;;12.48;52.17;96249.06;5060722;28;20206;-58
2022/03/29 07:59:35;;;;;;;15.60;12.13;;;;;;;12.63;52.17;96246.56;5043654;28;20243;-58
2022/03/29 08:02:01;;;;;;;16.50;12.53;;;;;;;12.67;50.97;96242.59;5042676;28;20212;-59
2022/03/29 08:04:28;;;;;;;16.43;12.60;;;;;;;12.86;50.72;96242.25;5041935;28;20204;-60
2022/03/29 08:06:55;;;;;;;15.00;12.97;;;;;;;12.99;51.16;96242.59;5040940;28;20226;-57
2022/03/29 08:09:22;;;;;;;17.57;12.70;;;;;;;13.28;49.58;96236.78;5043008;28;20232;-59
2022/03/29 08:11:50;;;;;;;22.80;13.03;;;;;;;13.37;48.47;96236.56;5041686;28;20218;-59
2022/03/29 08:14:19;;;;;;;19.07;12.67;;;;;;;13.42;47.71;96233.41;5042164;28;20214;-59
2022/03/29 08:16:46;;;;;;;16.20;11.77;;;;;;;13.58;48.77;96233.34;5041692;28;20211;-59
2022/03/29 08:19:13;;;;;;;17.53;11.87;;;;;;;13.81;49.12;96233.44;5041726;28;20199;-60
2022/03/29 08:21:52;;;;;;;19.97;12.70;;;;;;;13.89;47.78;96226.25;5042233;28;20203;-58
2022/03/29 08:24:20;;;;;;;17.83;12.70;;;;;;;13.92;47.21;96223.22;5042071;28;20285;-60
2022/03/29 08:26:51;;;;;;;22.63;12.60;;;;;;;14.16;46.52;96226.78;5041024;28;20280;-59
2022/03/29 08:29:18;;;;;;;19.47;12.47;;;;;;;14.24;45.24;96218.75;5042032;28;20219;-59
2022/03/29 08:31:47;;;;;;;18.50;11.80;;;;;;;14.32;45.18;96218.69;5042166;28;20655;-59
2022/03/29 08:34:16;;;;;;;21.30;13.00;;;;;;;14.60;46.54;96214.53;5042403;28;20257;-59
2022/03/29 08:36:42;;;;;;;17.00;11.60;;;;;;;14.79;43.82;96203.41;5041278;28;20200;-60
2022/03/29 08:39:10;;;;;;;16.00;12.40;;;;;;;14.96;42.94;96204.06;5040491;28;20261;-59
2022/03/29 08:41:38;;;;;;;16.93;12.00;;;;;;;15.26;42.22;96194.31;5041535;28;20195;-58
2022/03/29 08:44:07;;;;;;;15.70;10.90;;;;;;;15.50;42.53;96194.06;5041842;28;20222;-60
2022/03/29 08:46:35;;;;;;;15.67;11.43;;;;;;;15.63;39.82;96199.56;5042828;28;20613;-60
2022/03/29 08:49:03;;;;;;;13.67;11.40;;;;;;;15.61;39.65;96190.94;5042423;28;20259;-60
2022/03/29 08:51:30;;;;;;;14.70;11.33;;;;;;;15.93;40.07;96193.19;5041866;28;20204;-60
2022/03/29 08:53:58;;;;;;;16.10;11.80;;;;;;;16.18;39.78;96195.53;5041436;28;20203;-59
2022/03/29 08:56:24;;;;;;;16.43;11.07;;;;;;;16.27;39.28;96192.53;5041913;28;20529;-60
2022/03/29 08:58:51;;;;;;;18.50;11.67;;;;;;;16.35;39.78;96188.91;5043080;28;20200;-59
2022/03/29 09:01:21;;;;;;;13.17;11.10;;;;;;;16.27;40.87;96181.88;5043134;28;20707;-59
2022/03/29 09:03:48;;;;;;;14.87;11.57;;;;;;;16.32;40.38;96182.13;5053304;28;20612;-60
2022/03/29 09:06:15;;;;;;;17.23;11.47;;;;;;;16.35;39.51;96175.59;5047635;28;20262;-58
2022/03/29 09:08:45;;;;;;;19.05;11.30;;;;;;;16.45;39.60;96184.09;5044569;28;20387;-58
2022/03/29 09:11:13;;;;;;;17.40;12.30;;;;;;;16.59;40.54;96177.91;5047702;28;20723;-58
2022/03/29 09:13:40;;;;;;;14.90;11.15;;;;;;;16.55;39.39;96173.91;5048462;28;20203;-59
2022/03/29 09:16:08;;;;;;;18.85;11.38;;;;;;;16.74;38.95;96181.31;5048583;28;20219;-58
2022/03/29 09:18:37;;;;;;;15.80;11.52;;;;;;;16.72;38.62;96175.34;5045620;28;20651;-57
2022/03/29 09:21:09;;;;;;;15.10;11.73;;;;;;;16.88;37.28;96168.91;5047204;28;20200;-59
2022/03/29 09:23:36;;;;;;;14.48;11.85;;;;;;;17.02;37.34;96159.13;5048175;28;20265;-57
2022/03/29 09:26:03;;;;;;;12.85;10.77;;;;;;;17.12;36.83;96163.13;5046179;28;20242;-59
2022/03/29 09:28:34;;;;;;;15.20;12.00;;;;;;;17.05;36.27;96156.91;5048370;28;20330;-58
2022/03/29 09:31:02;;;;;;;15.23;11.02;;;;;;;17.36;35.61;96159.16;5049090;28;20215;-59
2022/03/29 09:33:32;;;;;;;14.60;11.38;;;;;;;17.23;34.07;96149.22;5044933;28;20196;-58
2022/03/29 09:36:03;;;;;;;14.35;11.38;;;;;;;17.56;34.34;96148.59;5044202;28;20640;-59
2022/03/29 09:38:32;;;;;;;18.35;11.05;;;;;;;17.53;34.20;96140.97;5044178;28;20518;-59
2022/03/29 09:41:00;;;;;;;15.73;11.70;;;;;;;17.65;35.71;96144.75;5044154;28;20200;-59
2022/03/29 09:43:30;;;;;;;15.88;12.32;;;;;;;17.39;33.84;96140.06;5044612;28;20188;-60
2022/03/29 09:45:59;;;;;;;16.27;12.27;;;;;;;17.49;35.94;96137.88;5044612;28;20196;-61
2022/03/29 09:48:32;;;;;;;16.75;12.27;;;;;;;17.51;35.35;96134.97;5043256;28;20200;-60
2022/03/29 09:51:17;;;;;;;16.45;12.30;;;;;;;17.51;34.58;96124.28;5043480;28;20228;-59
2022/03/29 09:53:46;;;;;;;17.60;12.02;;;;;;;17.34;33.69;96121.94;5044986;28;20287;-61
2022/03/29 09:56:14;;;;;;;16.90;11.77;;;;;;;17.96;34.79;96117.50;5043656;28;20195;-62
2022/03/29 09:58:44;;;;;;;16.98;12.10;;;;;;;18.06;34.44;96113.41;5044361;28;20215;-62
2022/03/29 10:01:25;;;;;;;13.35;11.95;;;;;;;18.05;32.22;96106.41;5044914;28;20269;-61
2022/03/29 10:03:53;;;;;;;17.27;12.50;;;;;;;17.92;31.97;96104.50;5041494;28;20215;-62
2022/03/29 10:06:23;;;;;;;14.45;11.57;;;;;;;17.88;32.42;96095.28;5043158;28;20227;-59
2022/03/29 10:11:36;;;;;;;17.80;12.00;;;;;;;18.13;32.92;96095.53;5058512;28;20205;-60
2022/03/29 10:14:04;;;;;;;15.93;11.75;;;;;;;18.49;33.41;96088.97;5067021;28;20240;-60
2022/03/29 10:16:30;;;;;;;14.80;11.32;;;;;;;18.47;30.56;96083.81;5044653;28;20200;-59
2022/03/29 10:18:57;;;;;;;19.02;12.07;;;;;;;18.48;31.05;96085.47;5043154;28;20636;-58
2022/03/29 10:21:25;;;;;;;14.82;11.88;;;;;;;18.47;31.20;96077.63;5043732;28;20277;-59
2022/03/29 10:23:51;;;;;;;14.43;12.15;;;;;;;18.57;32.17;96078.06;5044873;28;20591;-60
2022/03/29 10:26:19;;;;;;;15.68;12.65;;;;;;;18.42;30.73;96075.59;5044595;28;20223;-62
2022/03/29 10:28:46;;;;;;;15.38;12.40;;;;;;;18.32;32.54;96077.81;5044087;28;20199;-59
2022/03/29 10:31:31;;;;;;;13.40;11.82;;;;;;;18.50;31.69;96072.69;5043619;28;20235;-63
2022/03/29 10:34:17;;;;;;;13.18;11.85;;;;;;;18.50;32.01;96069.19;5044118;28;20210;-60
2022/03/29 10:37:02;;;;;;;12.85;11.55;;;;;;;18.73;30.13;96059.75;5042736;28;20188;-61
2022/03/29 10:39:48;;;;;;;12.52;11.23;;;;;;;19.07;31.85;96057.81;5044113;28;20199;-59
2022/03/29 10:42:33;;;;;;;13.43;12.02;;;;;;;19.24;30.45;96059.00;5043162;28;20658;-58
2022/03/29 10:45:10;;;;;;;15.40;11.18;;;;;;;19.59;31.27;96043.47;5043925;28;20195;-61
2022/03/29 10:47:37;;;;;;;13.68;11.80;;;;;;;19.78;29.84;96048.72;5043276;28;20208;-60
2022/03/29 10:50:06;;;;;;;12.95;11.68;;;;;;;19.81;28.25;96034.88;5042947;28;20700;-61
2022/03/29 10:52:40;;;;;;;18.90;12.32;;;;;;;20.29;29.62;96032.53;5042704;28;20281;-60
2022/03/29 10:55:31;;;;;;;12.77;11.40;;;;;;;20.55;28.21;96022.59;5043373;28;21504;-60
2022/03/29 10:58:16;;;;;;;13.32;11.30;;;;;;;20.96;28.78;96022.00;5043384;28;20204;-60
2022/03/29 11:00:45;;;;;;;15.63;11.55;;;;;;;20.95;29.00;96009.59;5043343;28;20526;-60
2022/03/29 11:03:20;;;;;;;14.77;11.50;;;;;;;20.80;27.02;96018.84;5044019;28;20632;-61
2022/03/29 11:06:10;;;;;;;13.18;11.27;;;;;;;20.73;28.80;96015.41;5043668;28;20196;-61
2022/03/29 11:08:40;;;;;;;12.43;11.13;;;;;;;21.24;29.41;96009.72;5045108;28;20260;-60
2022/03/29 11:11:09;;;;;;;15.05;11.40;;;;;;;21.53;27.37;96012.69;5045456;28;20246;-58
2022/03/29 11:13:37;;;;;;;12.45;11.00;;;;;;;21.48;27.15;95999.91;5046400;28;20203;-58
2022/03/29 11:16:30;;;;;;;13.27;11.63;;;;;;;21.69;26.97;95995.91;5047303;28;20231;-59
2022/03/29 11:18:57;;;;;;;13.75;11.93;;;;;;;21.82;28.98;95990.34;5045897;28;20238;-59
2022/03/29 11:21:39;;;;;;;14.48;11.90;;;;;;;21.47;27.21;95992.06;5046607;28;20206;-60
2022/03/29 11:24:10;;;;;;;16.08;11.10;;;;;;;21.09;28.04;95992.28;5046286;28;20198;-60
2022/03/29 11:26:38;;;;;;;13.10;11.68;;;;;;;20.95;26.94;95983.53;5044062;28;20235;-59
2022/03/29 11:29:08;;;;;;;12.70;11.32;;;;;;;21.05;27.96;95983.84;5044578;28;20207;-59
2022/03/29 11:31:37;;;;;;;11.40;10.18;;;;;;;21.11;25.10;95977.63;5042157;28;20552;-58
2022/03/29 11:34:04;;;;;;;12.50;10.65;;;;;;;20.87;26.21;95974.97;5042475;28;20195;-58
2022/03/29 11:36:32;;;;;;;10.07;9.18;;;;;;;21.13;26.66;95975.50;5042628;28;20203;-60
2022/03/29 11:38:59;;;;;;;11.20;9.93;;;;;;;21.05;26.23;95972.25;5043503;28;20215;-59
2022/03/29 11:41:29;;;;;;;10.90;9.40;;;;;;;21.28;25.30;95972.44;5041277;28;20195;-59